createdAt,value
2023-02-27T00:03:55.922Z,-1.10
2023-02-27T00:08:57.779Z,-1.10
2023-02-27T00:13:59.599Z,-1.10
2023-02-27T00:19:04.566Z,-1.10
2023-02-27T00:24:06.898Z,-1.00
2023-02-27T00:29:08.648Z,-0.90
2023-02-27T00:34:10.480Z,-1.00
2023-02-27T00:39:12.245Z,-0.90
2023-02-27T00:44:14.115Z,-0.90
2023-02-27T00:49:15.927Z,-0.90
2023-02-27T00:54:17.790Z,-1.00
2023-02-27T00:59:19.663Z,-1.00
2023-02-27T01:04:21.525Z,-1.10
2023-02-27T01:09:24.919Z,-1.20
2023-02-27T01:14:27.059Z,-1.10
2023-02-27T01:19:28.908Z,-1.10
2023-02-27T01:24:31.110Z,-1.10
2023-02-27T01:29:32.941Z,-1.00
2023-02-27T01:34:36.906Z,-1.10
2023-02-27T01:39:38.847Z,-1.00
2023-02-27T01:45:01.103Z,-1.10
2023-02-27T01:50:07.172Z,-1.20
2023-02-27T01:55:13.043Z,-1.20
2023-02-27T02:00:15.687Z,-1.20
2023-02-27T02:05:17.898Z,-1.20
2023-02-27T02:10:20.270Z,-1.10
2023-02-27T02:15:29.051Z,-1.10
2023-02-27T02:20:45.573Z,-1.10
2023-02-27T02:26:15.007Z,-1.10
2023-02-27T02:31:25.829Z,-1.00
2023-02-27T02:37:10.175Z,-1.10
2023-02-27T02:42:24.361Z,-1.00
2023-02-27T02:47:39.426Z,-1.00
2023-02-27T02:53:14.026Z,-1.10
2023-02-27T02:58:26.136Z,-1.00
2023-02-27T03:03:43.229Z,-0.90
2023-02-27T03:09:15.597Z,-0.90
2023-02-27T03:14:29.027Z,-0.90
2023-02-27T03:19:44.869Z,-0.90
2023-02-27T03:24:53.230Z,-0.90
2023-02-27T03:30:02.647Z,-0.90
2023-02-27T03:35:07.367Z,-0.90
2023-02-27T03:40:31.720Z,-0.90
2023-02-27T03:45:40.513Z,-0.90
2023-02-27T03:50:42.436Z,-1.00
2023-02-27T03:55:47.506Z,-1.20
2023-02-27T04:00:49.652Z,-1.10
2023-02-27T04:05:52.364Z,-1.10
2023-02-27T04:11:21.773Z,-1.10
2023-02-27T04:16:46.493Z,-1.20
2023-02-27T04:22:12.767Z,-1.30
2023-02-27T04:27:54.580Z,-1.30
2023-02-27T04:33:10.768Z,-1.30
2023-02-27T04:38:18.411Z,-1.50
2023-02-27T04:43:22.610Z,-1.70
2023-02-27T04:48:28.254Z,-1.90
2023-02-27T04:53:52.410Z,-2.00
2023-02-27T04:58:59.575Z,-2.00
2023-02-27T05:04:04.454Z,-2.00
2023-02-27T05:09:32.639Z,-2.00
2023-02-27T05:14:40.411Z,-2.00
2023-02-27T05:19:44.468Z,-2.00
2023-02-27T05:24:57.394Z,-2.00
2023-02-27T05:30:12.796Z,-2.00
2023-02-27T05:35:29.327Z,-2.10
2023-02-27T05:40:39.142Z,-2.10
2023-02-27T05:45:45.507Z,-2.10
2023-02-27T05:50:49.094Z,-2.00
2023-02-27T05:55:54.367Z,-2.00
2023-02-27T06:01:02.109Z,-2.00
2023-02-27T06:06:07.667Z,-2.10
2023-02-27T06:11:09.478Z,-2.10
2023-02-27T06:16:13.648Z,-2.20
2023-02-27T06:21:15.433Z,-2.20
2023-02-27T06:26:17.868Z,-2.10
2023-02-27T06:31:19.674Z,-2.10
2023-02-27T06:36:22.985Z,-2.00
2023-02-27T06:41:25.438Z,-2.00
2023-02-27T06:46:27.514Z,-1.90
2023-02-27T06:51:29.477Z,-2.10
2023-02-27T06:56:31.238Z,-2.10
2023-02-27T07:01:33.211Z,-2.10
2023-02-27T07:07:34.860Z,-2.10
2023-02-27T07:11:56.748Z,-2.00
2023-02-27T07:16:59.410Z,-2.00
2023-02-27T07:22:01.298Z,-1.80
2023-02-27T07:27:03.230Z,-1.70
2023-02-27T07:32:05.326Z,-1.60
2023-02-27T07:37:07.991Z,-1.50
2023-02-27T07:42:09.742Z,-1.60
2023-02-27T07:47:11.511Z,-1.50
2023-02-27T07:52:13.332Z,-1.20
2023-02-27T07:57:15.120Z,-1.20
2023-02-27T08:02:16.895Z,-1.30
2023-02-27T08:07:18.781Z,-1.40
2023-02-27T08:12:20.599Z,-1.30
2023-02-27T08:17:22.311Z,-1.10
2023-02-27T08:22:24.046Z,-0.90
2023-02-27T08:27:25.875Z,-0.70
2023-02-27T08:32:27.897Z,-0.70
2023-02-27T08:37:29.632Z,-0.80
2023-02-27T08:42:31.407Z,-0.50
2023-02-27T08:47:33.167Z,-0.30
2023-02-27T08:52:34.898Z,-0.10
2023-02-27T08:57:36.762Z,0.00
2023-02-27T09:02:38.615Z,0.10
2023-02-27T09:07:40.451Z,0.10
2023-02-27T09:12:42.967Z,0.10
2023-02-27T09:17:44.819Z,0.20
2023-02-27T09:22:46.557Z,0.20
2023-02-27T09:27:48.289Z,0.20
2023-02-27T09:32:50.789Z,0.20
2023-02-27T09:37:52.787Z,0.10
2023-02-27T09:42:58.237Z,0.20
2023-02-27T09:48:08.305Z,0.30
2023-02-27T09:53:37.317Z,0.30
2023-02-27T09:58:51.047Z,0.40
2023-02-27T10:04:25.503Z,0.50
2023-02-27T10:09:57.089Z,0.60
2023-02-27T10:15:20.800Z,0.60
2023-02-27T10:20:33.654Z,0.50
2023-02-27T10:25:43.511Z,0.30
2023-02-27T10:30:49.658Z,0.30
2023-02-27T10:35:55.059Z,0.40
2023-02-27T10:40:58.927Z,0.70
2023-02-27T10:46:03.598Z,1.00
2023-02-27T10:51:29.315Z,1.10
2023-02-27T10:56:31.414Z,1.40
2023-02-27T11:02:17.510Z,1.30
2023-02-27T11:07:39.048Z,1.40
2023-02-27T11:12:43.224Z,1.30
2023-02-27T11:17:44.976Z,1.20
2023-02-27T11:23:22.139Z,1.20
2023-02-27T11:28:29.773Z,1.20
2023-02-27T11:33:36.384Z,1.20
2023-02-27T11:38:38.350Z,1.20
2023-02-27T11:43:49.669Z,1.30
2023-02-27T11:49:13.924Z,1.30
2023-02-27T11:54:43.381Z,1.10
2023-02-27T12:00:14.930Z,1.00
2023-02-27T12:05:30.522Z,0.80
2023-02-27T12:11:18.541Z,0.80
2023-02-27T12:16:42.271Z,0.90
2023-02-27T12:21:58.090Z,0.90
2023-02-27T12:27:23.830Z,1.10
2023-02-27T12:32:31.617Z,1.20
2023-02-27T12:37:33.559Z,1.40
2023-02-27T12:42:36.130Z,1.40
2023-02-27T12:47:56.055Z,1.40
2023-02-27T12:53:24.389Z,1.30
2023-02-27T12:58:38.683Z,1.30
2023-02-27T13:03:49.666Z,1.20
2023-02-27T13:09:06.175Z,1.20
2023-02-27T13:14:35.620Z,1.30
2023-02-27T13:20:00.233Z,1.40
2023-02-27T13:25:08.641Z,1.60
2023-02-27T13:30:19.024Z,1.60
2023-02-27T13:35:36.198Z,1.60
2023-02-27T13:40:40.917Z,1.50
2023-02-27T13:45:47.906Z,1.30
2023-02-27T13:50:51.470Z,1.20
2023-02-27T13:55:58.338Z,1.20
2023-02-27T14:01:01.612Z,1.30
2023-02-27T14:06:06.192Z,1.30
2023-02-27T14:11:22.813Z,1.30
2023-02-27T14:16:43.940Z,1.10
2023-02-27T14:22:24.404Z,1.10
2023-02-27T14:27:30.335Z,1.10
2023-02-27T14:32:35.393Z,1.00
2023-02-27T14:37:37.226Z,0.90
2023-02-27T14:43:01.176Z,0.90
2023-02-27T14:48:03.491Z,1.00
2023-02-27T14:53:06.270Z,0.90
2023-02-27T14:58:08.069Z,0.80
2023-02-27T15:03:35.586Z,0.80
2023-02-27T15:08:41.007Z,0.70
2023-02-27T15:13:44.494Z,0.80
2023-02-27T15:18:51.203Z,0.90
2023-02-27T15:24:01.224Z,0.80
2023-02-27T15:29:05.526Z,0.80
2023-02-27T15:34:14.055Z,0.80
2023-02-27T15:39:19.430Z,0.80
2023-02-27T15:44:30.631Z,0.80
2023-02-27T15:49:32.569Z,0.70
2023-02-27T15:54:36.533Z,0.70
2023-02-27T15:59:41.585Z,0.60
2023-02-27T16:04:46.448Z,0.50
2023-02-27T16:10:04.470Z,0.50
2023-02-27T16:15:31.433Z,0.50
2023-02-27T16:20:45.447Z,0.40
2023-02-27T16:26:08.986Z,0.40
2023-02-27T16:31:25.282Z,0.40
2023-02-27T16:36:31.593Z,0.30
2023-02-27T16:41:37.894Z,0.30
2023-02-27T16:46:44.703Z,0.20
2023-02-27T16:51:48.781Z,0.10
2023-02-27T16:56:52.586Z,0.10
2023-02-27T17:02:00.150Z,0.10
2023-02-27T17:07:09.705Z,0.00
2023-02-27T17:12:13.368Z,-0.10
2023-02-27T17:17:17.718Z,-0.20
2023-02-27T17:22:21.222Z,-0.20
2023-02-27T17:27:24.844Z,-0.30
2023-02-27T17:32:28.633Z,-0.30
2023-02-27T17:37:35.815Z,-0.30
2023-02-27T17:42:40.170Z,-0.30
2023-02-27T17:47:47.143Z,-0.30
2023-02-27T17:52:57.419Z,-0.40
2023-02-27T17:58:01.068Z,-0.50
2023-02-27T18:03:04.781Z,-0.50
2023-02-27T18:08:08.044Z,-0.50
2023-02-27T18:13:11.296Z,-0.50
2023-02-27T18:18:15.597Z,-0.50
2023-02-27T18:23:19.060Z,-0.50
2023-02-27T18:28:31.806Z,-0.70
2023-02-27T18:33:35.264Z,-0.70
2023-02-27T18:38:39.716Z,-0.70
2023-02-27T18:43:46.344Z,-0.80
2023-02-27T18:48:52.998Z,-0.90
2023-02-27T18:53:57.515Z,-0.90
2023-02-27T18:59:12.681Z,-1.00
2023-02-27T19:04:15.961Z,-1.10
2023-02-27T19:09:22.615Z,-1.20
2023-02-27T19:14:27.857Z,-1.10
2023-02-27T19:19:30.019Z,-1.10
2023-02-27T19:24:31.878Z,-1.10
2023-02-27T19:29:33.682Z,-1.10
2023-02-27T19:34:35.425Z,-1.20
2023-02-27T19:39:37.221Z,-1.30
2023-02-27T19:44:40.426Z,-1.20
2023-02-27T19:49:42.157Z,-1.40
2023-02-27T19:54:43.956Z,-1.40
2023-02-27T19:59:45.941Z,-1.30
2023-02-27T20:04:48.148Z,-1.30
2023-02-27T20:09:50.101Z,-1.40
2023-02-27T20:14:52.197Z,-1.40
2023-02-27T20:19:53.952Z,-1.50
2023-02-27T20:24:56.624Z,-1.50
2023-02-27T20:29:58.444Z,-1.50
2023-02-27T20:35:00.384Z,-1.60
2023-02-27T20:40:04.080Z,-1.70
2023-02-27T20:45:06.471Z,-1.80
2023-02-27T20:50:08.900Z,-1.80
2023-02-27T20:55:11.182Z,-1.80
2023-02-27T21:00:13.602Z,-1.80
2023-02-27T21:05:15.537Z,-1.80
2023-02-27T21:10:17.794Z,-1.80
2023-02-27T21:15:19.687Z,-1.90
2023-02-27T21:20:21.515Z,-1.90
2023-02-27T21:25:25.077Z,-2.00
2023-02-27T21:30:26.889Z,-2.00
2023-02-27T21:35:28.792Z,-2.00
2023-02-27T21:40:30.620Z,-2.00
2023-02-27T21:45:32.469Z,-2.00
2023-02-27T21:50:34.230Z,-2.00
2023-02-27T21:55:36.061Z,-2.00
2023-02-27T22:00:37.897Z,-2.10
2023-02-27T22:05:43.756Z,-2.00
2023-02-27T22:10:48.451Z,-2.10
2023-02-27T22:15:50.246Z,-2.00
2023-02-27T22:20:53.087Z,-2.10
2023-02-27T22:26:02.499Z,-2.10
2023-02-27T22:31:20.441Z,-2.20
2023-02-27T22:36:25.417Z,-2.20
2023-02-27T22:41:36.008Z,-2.40
2023-02-27T22:46:44.200Z,-2.40
2023-02-27T22:51:49.152Z,-2.50
2023-02-27T22:56:53.251Z,-2.40
2023-02-27T23:01:55.090Z,-2.50
2023-02-27T23:06:56.886Z,-2.50
2023-02-27T23:12:00.718Z,-2.60
2023-02-27T23:17:02.465Z,-2.60
2023-02-27T23:22:04.264Z,-2.70
2023-02-27T23:27:23.421Z,-2.80
2023-02-27T23:32:27.080Z,-2.90
2023-02-27T23:37:29.075Z,-3.00
2023-02-27T23:42:49.533Z,-3.00
2023-02-27T23:47:56.471Z,-3.10
2023-02-27T23:52:59.993Z,-3.20
2023-02-27T23:58:04.120Z,-3.20
